sensor_id;sensor_type;location;lat;lon;timestamp;temperature;humidity
57552;DHT22;43379;48.160;14.036;2023-03-20T00:01:16;11.50;99.90
57552;DHT22;43379;48.160;14.036;2023-03-20T00:03:42;11.60;99.90
57552;DHT22;43379;48.160;14.036;2023-03-20T00:06:14;11.60;99.90
57552;DHT22;43379;48.160;14.036;2023-03-20T00:08:41;11.60;99.90
57552;DHT22;43379;48.160;14.036;2023-03-20T00:13:52;11.60;99.90
57552;DHT22;43379;48.160;14.036;2023-03-20T00:16:18;11.60;99.90
57552;DHT22;43379;48.160;14.036;2023-03-20T00:18:44;11.60;99.90
57552;DHT22;43379;48.160;14.036;2023-03-20T00:21:17;11.60;99.90
57552;DHT22;43379;48.160;14.036;2023-03-20T00:23:44;11.60;99.90
57552;DHT22;43379;48.160;14.036;2023-03-20T00:26:15;11.60;99.90
57552;DHT22;43379;48.160;14.036;2023-03-20T00:28:47;11.60;99.90
57552;DHT22;43379;48.160;14.036;2023-03-20T00:31:37;11.60;99.90
57552;DHT22;43379;48.160;14.036;2023-03-20T00:34:05;11.50;99.90
57552;DHT22;43379;48.160;14.036;2023-03-20T00:36:32;11.60;99.90
57552;DHT22;43379;48.160;14.036;2023-03-20T00:38:57;11.60;99.90
57552;DHT22;43379;48.160;14.036;2023-03-20T00:41:42;11.50;99.90
57552;DHT22;43379;48.160;14.036;2023-03-20T00:44:19;11.60;99.90
57552;DHT22;43379;48.160;14.036;2023-03-20T00:46:51;11.60;99.90
57552;DHT22;43379;48.160;14.036;2023-03-20T00:49:22;11.50;99.90
57552;DHT22;43379;48.160;14.036;2023-03-20T00:51:49;11.60;99.90
57552;DHT22;43379;48.160;14.036;2023-03-20T00:54:16;11.60;99.90
57552;DHT22;43379;48.160;14.036;2023-03-20T00:59:17;11.60;99.90
57552;DHT22;43379;48.160;14.036;2023-03-20T01:01:44;11.60;99.90
57552;DHT22;43379;48.160;14.036;2023-03-20T01:04:13;11.50;99.90
57552;DHT22;43379;48.160;14.036;2023-03-20T01:06:39;11.50;99.90
57552;DHT22;43379;48.160;14.036;2023-03-20T01:09:05;11.60;99.90
57552;DHT22;43379;48.160;14.036;2023-03-20T01:11:30;11.60;99.90
57552;DHT22;43379;48.160;14.036;2023-03-20T01:13:57;11.60;99.90
57552;DHT22;43379;48.160;14.036;2023-03-20T01:16:24;11.60;99.90
57552;DHT22;43379;48.160;14.036;2023-03-20T01:18:50;11.60;99.90
57552;DHT22;43379;48.160;14.036;2023-03-20T01:21:17;11.60;99.90
57552;DHT22;43379;48.160;14.036;2023-03-20T01:23:43;11.60;99.90
57552;DHT22;43379;48.160;14.036;2023-03-20T01:26:29;11.60;99.90
57552;DHT22;43379;48.160;14.036;2023-03-20T01:28:56;11.60;99.90
57552;DHT22;43379;48.160;14.036;2023-03-20T01:31:22;11.60;99.90
57552;DHT22;43379;48.160;14.036;2023-03-20T01:33:47;11.60;99.90
57552;DHT22;43379;48.160;14.036;2023-03-20T01:36:15;11.60;99.90
57552;DHT22;43379;48.160;14.036;2023-03-20T01:38:42;11.60;99.90
57552;DHT22;43379;48.160;14.036;2023-03-20T01:41:14;11.60;99.90
57552;DHT22;43379;48.160;14.036;2023-03-20T01:43:41;11.60;99.90
57552;DHT22;43379;48.160;14.036;2023-03-20T01:51:17;11.60;99.90
57552;DHT22;43379;48.160;14.036;2023-03-20T01:53:50;11.50;99.90
57552;DHT22;43379;48.160;14.036;2023-03-20T01:56:17;11.50;99.90
57552;DHT22;43379;48.160;14.036;2023-03-20T01:58:47;11.60;99.90
57552;DHT22;43379;48.160;14.036;2023-03-20T02:01:15;11.50;99.90
57552;DHT22;43379;48.160;14.036;2023-03-20T02:03:45;11.50;99.90
57552;DHT22;43379;48.160;14.036;2023-03-20T02:06:11;11.60;99.90
57552;DHT22;43379;48.160;14.036;2023-03-20T02:08:46;11.50;99.90
57552;DHT22;43379;48.160;14.036;2023-03-20T02:11:14;11.60;99.90
57552;DHT22;43379;48.160;14.036;2023-03-20T02:13:42;11.50;99.90
57552;DHT22;43379;48.160;14.036;2023-03-20T02:16:13;11.50;99.90
57552;DHT22;43379;48.160;14.036;2023-03-20T02:18:42;11.50;99.90
57552;DHT22;43379;48.160;14.036;2023-03-20T02:24:21;11.50;99.90
57552;DHT22;43379;48.160;14.036;2023-03-20T02:27:15;11.50;99.90
57552;DHT22;43379;48.160;14.036;2023-03-20T02:38:03;11.50;99.90
57552;DHT22;43379;48.160;14.036;2023-03-20T02:40:54;11.40;99.90
57552;DHT22;43379;48.160;14.036;2023-03-20T02:43:47;11.40;99.90
57552;DHT22;43379;48.160;14.036;2023-03-20T02:46:35;11.40;99.90
57552;DHT22;43379;48.160;14.036;2023-03-20T02:52:22;11.30;99.90
57552;DHT22;43379;48.160;14.036;2023-03-20T02:58:25;11.30;99.90
57552;DHT22;43379;48.160;14.036;2023-03-20T03:00:56;11.30;99.90
57552;DHT22;43379;48.160;14.036;2023-03-20T03:03:32;11.30;99.90
57552;DHT22;43379;48.160;14.036;2023-03-20T03:08:40;11.30;99.90
57552;DHT22;43379;48.160;14.036;2023-03-20T03:11:08;11.30;99.90
57552;DHT22;43379;48.160;14.036;2023-03-20T03:13:47;11.20;99.90
57552;DHT22;43379;48.160;14.036;2023-03-20T03:16:20;11.30;99.90
57552;DHT22;43379;48.160;14.036;2023-03-20T03:19:00;11.30;99.90
57552;DHT22;43379;48.160;14.036;2023-03-20T03:21:28;11.30;99.90
57552;DHT22;43379;48.160;14.036;2023-03-20T03:23:54;11.20;99.90
57552;DHT22;43379;48.160;14.036;2023-03-20T03:26:24;11.20;99.90
57552;DHT22;43379;48.160;14.036;2023-03-20T03:28:56;11.20;99.90
57552;DHT22;43379;48.160;14.036;2023-03-20T03:31:24;11.20;99.90
57552;DHT22;43379;48.160;14.036;2023-03-20T03:33:53;11.20;99.90
57552;DHT22;43379;48.160;14.036;2023-03-20T03:41:48;11.10;99.90
57552;DHT22;43379;48.160;14.036;2023-03-20T03:47:04;11.00;99.90
57552;DHT22;43379;48.160;14.036;2023-03-20T03:49:38;11.00;99.90
57552;DHT22;43379;48.160;14.036;2023-03-20T03:52:09;10.90;99.90
57552;DHT22;43379;48.160;14.036;2023-03-20T03:54:43;10.90;99.90
57552;DHT22;43379;48.160;14.036;2023-03-20T03:57:13;10.90;99.90
57552;DHT22;43379;48.160;14.036;2023-03-20T03:59:44;10.80;99.90
57552;DHT22;43379;48.160;14.036;2023-03-20T04:02:11;10.90;99.90
57552;DHT22;43379;48.160;14.036;2023-03-20T04:04:41;10.80;99.90
57552;DHT22;43379;48.160;14.036;2023-03-20T04:07:07;10.80;99.90
57552;DHT22;43379;48.160;14.036;2023-03-20T04:09:33;10.90;99.90
57552;DHT22;43379;48.160;14.036;2023-03-20T04:11:59;10.90;99.90
57552;DHT22;43379;48.160;14.036;2023-03-20T04:14:25;10.80;99.90
57552;DHT22;43379;48.160;14.036;2023-03-20T04:16:51;10.90;99.90
57552;DHT22;43379;48.160;14.036;2023-03-20T04:19:17;10.90;99.90
57552;DHT22;43379;48.160;14.036;2023-03-20T04:21:42;10.90;99.90
57552;DHT22;43379;48.160;14.036;2023-03-20T04:24:10;10.90;99.90
57552;DHT22;43379;48.160;14.036;2023-03-20T04:26:36;10.90;99.90
57552;DHT22;43379;48.160;14.036;2023-03-20T04:29:02;10.90;99.90
57552;DHT22;43379;48.160;14.036;2023-03-20T04:31:28;10.90;99.90
57552;DHT22;43379;48.160;14.036;2023-03-20T04:33:54;10.80;99.90
57552;DHT22;43379;48.160;14.036;2023-03-20T04:36:20;10.80;99.90
57552;DHT22;43379;48.160;14.036;2023-03-20T04:38:45;10.90;99.90
57552;DHT22;43379;48.160;14.036;2023-03-20T04:41:11;10.90;99.90
57552;DHT22;43379;48.160;14.036;2023-03-20T04:43:37;10.90;99.90
57552;DHT22;43379;48.160;14.036;2023-03-20T04:46:04;11.00;99.90
57552;DHT22;43379;48.160;14.036;2023-03-20T04:48:30;11.00;99.90
57552;DHT22;43379;48.160;14.036;2023-03-20T04:50:56;11.10;99.90
57552;DHT22;43379;48.160;14.036;2023-03-20T04:53:22;11.00;99.90
57552;DHT22;43379;48.160;14.036;2023-03-20T04:55:48;11.10;99.90
57552;DHT22;43379;48.160;14.036;2023-03-20T04:58:15;11.00;99.90
57552;DHT22;43379;48.160;14.036;2023-03-20T05:00:42;11.00;99.90
57552;DHT22;43379;48.160;14.036;2023-03-20T05:03:08;11.00;99.90
57552;DHT22;43379;48.160;14.036;2023-03-20T05:05:34;11.10;99.90
57552;DHT22;43379;48.160;14.036;2023-03-20T05:08:03;11.10;99.90
57552;DHT22;43379;48.160;14.036;2023-03-20T05:10:29;11.10;99.90
57552;DHT22;43379;48.160;14.036;2023-03-20T05:12:56;11.10;99.90
57552;DHT22;43379;48.160;14.036;2023-03-20T05:15:21;11.10;99.90
57552;DHT22;43379;48.160;14.036;2023-03-20T05:17:47;11.20;99.90
57552;DHT22;43379;48.160;14.036;2023-03-20T05:20:13;11.20;99.90
57552;DHT22;43379;48.160;14.036;2023-03-20T05:22:38;11.20;99.90
57552;DHT22;43379;48.160;14.036;2023-03-20T05:25:04;11.20;99.90
57552;DHT22;43379;48.160;14.036;2023-03-20T05:27:30;11.10;99.90
57552;DHT22;43379;48.160;14.036;2023-03-20T05:29:56;11.20;99.90
57552;DHT22;43379;48.160;14.036;2023-03-20T05:32:21;11.20;99.90
57552;DHT22;43379;48.160;14.036;2023-03-20T05:34:47;11.20;99.90
57552;DHT22;43379;48.160;14.036;2023-03-20T05:37:13;11.20;99.90
57552;DHT22;43379;48.160;14.036;2023-03-20T05:39:38;11.30;99.90
57552;DHT22;43379;48.160;14.036;2023-03-20T05:42:04;11.30;99.90
57552;DHT22;43379;48.160;14.036;2023-03-20T05:44:30;11.30;99.90
57552;DHT22;43379;48.160;14.036;2023-03-20T05:46:55;11.30;99.90
57552;DHT22;43379;48.160;14.036;2023-03-20T05:49:21;11.20;99.90
57552;DHT22;43379;48.160;14.036;2023-03-20T05:51:47;11.30;99.90
57552;DHT22;43379;48.160;14.036;2023-03-20T05:54:12;11.20;99.90
57552;DHT22;43379;48.160;14.036;2023-03-20T05:56:38;11.20;99.90
57552;DHT22;43379;48.160;14.036;2023-03-20T05:59:04;11.30;99.90
57552;DHT22;43379;48.160;14.036;2023-03-20T06:01:29;11.30;99.90
57552;DHT22;43379;48.160;14.036;2023-03-20T06:03:55;11.40;99.90
57552;DHT22;43379;48.160;14.036;2023-03-20T06:06:21;11.30;99.90
57552;DHT22;43379;48.160;14.036;2023-03-20T06:08:46;11.30;99.90
57552;DHT22;43379;48.160;14.036;2023-03-20T06:11:12;11.40;99.90
57552;DHT22;43379;48.160;14.036;2023-03-20T06:13:38;11.40;99.90
57552;DHT22;43379;48.160;14.036;2023-03-20T06:16:04;11.40;99.90
57552;DHT22;43379;48.160;14.036;2023-03-20T06:18:30;11.40;99.90
57552;DHT22;43379;48.160;14.036;2023-03-20T06:20:56;11.40;99.90
57552;DHT22;43379;48.160;14.036;2023-03-20T06:23:22;11.50;99.90
57552;DHT22;43379;48.160;14.036;2023-03-20T06:25:48;11.50;99.90
57552;DHT22;43379;48.160;14.036;2023-03-20T06:28:14;11.60;99.90
57552;DHT22;43379;48.160;14.036;2023-03-20T06:30:42;11.60;99.90
57552;DHT22;43379;48.160;14.036;2023-03-20T06:33:07;11.60;99.90
57552;DHT22;43379;48.160;14.036;2023-03-20T06:35:34;11.70;99.90
57552;DHT22;43379;48.160;14.036;2023-03-20T06:38:00;11.70;99.90
57552;DHT22;43379;48.160;14.036;2023-03-20T06:40:27;11.70;99.90
57552;DHT22;43379;48.160;14.036;2023-03-20T06:42:53;11.70;99.90
57552;DHT22;43379;48.160;14.036;2023-03-20T06:45:20;11.70;99.90
57552;DHT22;43379;48.160;14.036;2023-03-20T06:47:45;11.70;99.90
57552;DHT22;43379;48.160;14.036;2023-03-20T06:50:12;11.80;99.90
57552;DHT22;43379;48.160;14.036;2023-03-20T06:52:38;11.80;99.90
57552;DHT22;43379;48.160;14.036;2023-03-20T06:55:05;11.90;99.90
57552;DHT22;43379;48.160;14.036;2023-03-20T06:57:31;11.90;99.90
57552;DHT22;43379;48.160;14.036;2023-03-20T06:59:58;11.90;99.90
57552;DHT22;43379;48.160;14.036;2023-03-20T07:02:24;11.90;99.90
57552;DHT22;43379;48.160;14.036;2023-03-20T07:04:50;11.90;99.90
57552;DHT22;43379;48.160;14.036;2023-03-20T07:07:15;11.90;99.90
57552;DHT22;43379;48.160;14.036;2023-03-20T07:09:41;12.00;99.90
57552;DHT22;43379;48.160;14.036;2023-03-20T07:12:15;12.00;99.90
57552;DHT22;43379;48.160;14.036;2023-03-20T07:14:44;12.00;99.90
57552;DHT22;43379;48.160;14.036;2023-03-20T07:17:10;12.00;99.90
57552;DHT22;43379;48.160;14.036;2023-03-20T07:19:36;12.20;99.90
57552;DHT22;43379;48.160;14.036;2023-03-20T07:22:05;12.20;99.90
57552;DHT22;43379;48.160;14.036;2023-03-20T07:24:32;12.20;99.90
57552;DHT22;43379;48.160;14.036;2023-03-20T07:26:58;12.30;99.90
57552;DHT22;43379;48.160;14.036;2023-03-20T07:29:24;12.40;99.90
57552;DHT22;43379;48.160;14.036;2023-03-20T07:31:50;12.50;99.90
57552;DHT22;43379;48.160;14.036;2023-03-20T07:34:16;12.50;99.90
57552;DHT22;43379;48.160;14.036;2023-03-20T07:36:42;12.40;99.90
57552;DHT22;43379;48.160;14.036;2023-03-20T07:39:10;12.50;99.90
57552;DHT22;43379;48.160;14.036;2023-03-20T07:41:36;12.60;99.90
57552;DHT22;43379;48.160;14.036;2023-03-20T07:44:02;12.50;99.90
57552;DHT22;43379;48.160;14.036;2023-03-20T07:46:27;12.50;99.90
57552;DHT22;43379;48.160;14.036;2023-03-20T07:48:53;12.60;99.90
57552;DHT22;43379;48.160;14.036;2023-03-20T07:51:20;12.60;99.90
57552;DHT22;43379;48.160;14.036;2023-03-20T07:53:46;12.70;99.90
57552;DHT22;43379;48.160;14.036;2023-03-20T07:56:12;12.70;99.90
57552;DHT22;43379;48.160;14.036;2023-03-20T07:58:37;12.70;99.90
57552;DHT22;43379;48.160;14.036;2023-03-20T08:01:03;12.70;99.90
57552;DHT22;43379;48.160;14.036;2023-03-20T08:03:29;12.80;99.90
57552;DHT22;43379;48.160;14.036;2023-03-20T08:05:55;12.90;99.90
57552;DHT22;43379;48.160;14.036;2023-03-20T08:08:20;13.00;99.90
57552;DHT22;43379;48.160;14.036;2023-03-20T08:10:47;13.20;99.90
57552;DHT22;43379;48.160;14.036;2023-03-20T08:13:13;13.30;99.90
57552;DHT22;43379;48.160;14.036;2023-03-20T08:15:39;13.50;99.90
57552;DHT22;43379;48.160;14.036;2023-03-20T08:18:05;13.60;99.90
57552;DHT22;43379;48.160;14.036;2023-03-20T08:20:30;14.00;99.90
57552;DHT22;43379;48.160;14.036;2023-03-20T08:22:56;14.30;99.90
57552;DHT22;43379;48.160;14.036;2023-03-20T08:25:22;14.50;99.90
57552;DHT22;43379;48.160;14.036;2023-03-20T08:27:48;14.50;99.90
57552;DHT22;43379;48.160;14.036;2023-03-20T08:30:14;14.40;99.90
57552;DHT22;43379;48.160;14.036;2023-03-20T08:32:40;14.40;99.90
57552;DHT22;43379;48.160;14.036;2023-03-20T08:35:06;14.30;99.90
57552;DHT22;43379;48.160;14.036;2023-03-20T08:37:33;14.20;99.90
57552;DHT22;43379;48.160;14.036;2023-03-20T08:39:59;14.10;99.90
57552;DHT22;43379;48.160;14.036;2023-03-20T08:42:25;14.00;99.90
57552;DHT22;43379;48.160;14.036;2023-03-20T08:44:50;13.90;99.90
57552;DHT22;43379;48.160;14.036;2023-03-20T08:47:16;13.90;99.90
57552;DHT22;43379;48.160;14.036;2023-03-20T08:49:42;13.80;99.90
57552;DHT22;43379;48.160;14.036;2023-03-20T08:52:08;13.90;99.90
57552;DHT22;43379;48.160;14.036;2023-03-20T08:54:34;13.70;99.90
57552;DHT22;43379;48.160;14.036;2023-03-20T08:56:59;13.70;99.90
57552;DHT22;43379;48.160;14.036;2023-03-20T08:59:25;13.70;99.90
57552;DHT22;43379;48.160;14.036;2023-03-20T09:01:51;13.70;99.90
57552;DHT22;43379;48.160;14.036;2023-03-20T09:04:17;13.70;99.90
57552;DHT22;43379;48.160;14.036;2023-03-20T09:06:43;13.60;99.90
57552;DHT22;43379;48.160;14.036;2023-03-20T09:09:09;13.70;99.90
57552;DHT22;43379;48.160;14.036;2023-03-20T09:11:35;13.70;99.90
57552;DHT22;43379;48.160;14.036;2023-03-20T09:14:01;13.70;99.90
57552;DHT22;43379;48.160;14.036;2023-03-20T09:16:26;13.60;99.90
57552;DHT22;43379;48.160;14.036;2023-03-20T09:18:52;13.50;99.90
57552;DHT22;43379;48.160;14.036;2023-03-20T09:21:18;13.60;99.90
57552;DHT22;43379;48.160;14.036;2023-03-20T09:23:43;13.60;99.90
57552;DHT22;43379;48.160;14.036;2023-03-20T09:26:10;13.60;99.90
57552;DHT22;43379;48.160;14.036;2023-03-20T09:28:35;13.60;99.90
57552;DHT22;43379;48.160;14.036;2023-03-20T09:31:01;13.60;99.90
57552;DHT22;43379;48.160;14.036;2023-03-20T09:33:27;13.60;99.90
57552;DHT22;43379;48.160;14.036;2023-03-20T09:35:52;13.60;99.90
57552;DHT22;43379;48.160;14.036;2023-03-20T09:38:18;13.60;99.90
57552;DHT22;43379;48.160;14.036;2023-03-20T09:40:53;13.60;99.90
57552;DHT22;43379;48.160;14.036;2023-03-20T09:43:51;13.60;99.90
57552;DHT22;43379;48.160;14.036;2023-03-20T09:49:43;13.40;99.90
57552;DHT22;43379;48.160;14.036;2023-03-20T09:52:27;13.40;99.90
57552;DHT22;43379;48.160;14.036;2023-03-20T09:54:57;13.40;99.90
57552;DHT22;43379;48.160;14.036;2023-03-20T09:57:34;13.40;99.90
57552;DHT22;43379;48.160;14.036;2023-03-20T10:00:05;13.40;99.90
57552;DHT22;43379;48.160;14.036;2023-03-20T10:02:59;13.40;99.90
57552;DHT22;43379;48.160;14.036;2023-03-20T10:05:36;13.40;99.90
57552;DHT22;43379;48.160;14.036;2023-03-20T10:08:05;13.40;99.90
57552;DHT22;43379;48.160;14.036;2023-03-20T10:10:46;13.50;99.90
57552;DHT22;43379;48.160;14.036;2023-03-20T10:15:49;13.60;99.90
57552;DHT22;43379;48.160;14.036;2023-03-20T10:18:25;13.60;99.90
57552;DHT22;43379;48.160;14.036;2023-03-20T10:21:20;13.70;99.90
57552;DHT22;43379;48.160;14.036;2023-03-20T10:24:03;13.60;99.90
57552;DHT22;43379;48.160;14.036;2023-03-20T10:26:34;13.60;99.90
57552;DHT22;43379;48.160;14.036;2023-03-20T10:29:06;13.70;99.90
57552;DHT22;43379;48.160;14.036;2023-03-20T10:37:16;13.80;99.90
57552;DHT22;43379;48.160;14.036;2023-03-20T10:42:33;13.80;99.90
57552;DHT22;43379;48.160;14.036;2023-03-20T10:45:24;13.90;99.90
57552;DHT22;43379;48.160;14.036;2023-03-20T10:47:52;14.00;99.90
57552;DHT22;43379;48.160;14.036;2023-03-20T10:50:23;14.00;99.90
57552;DHT22;43379;48.160;14.036;2023-03-20T10:52:53;14.20;99.90
57552;DHT22;43379;48.160;14.036;2023-03-20T10:55:36;14.30;99.90
57552;DHT22;43379;48.160;14.036;2023-03-20T10:58:17;14.50;99.90
57552;DHT22;43379;48.160;14.036;2023-03-20T11:00:44;14.50;99.90
57552;DHT22;43379;48.160;14.036;2023-03-20T11:03:23;14.60;99.90
57552;DHT22;43379;48.160;14.036;2023-03-20T11:05:54;14.60;99.90
57552;DHT22;43379;48.160;14.036;2023-03-20T11:08:23;14.50;99.90
57552;DHT22;43379;48.160;14.036;2023-03-20T11:10:58;14.50;99.90
57552;DHT22;43379;48.160;14.036;2023-03-20T11:13:34;14.50;99.90
57552;DHT22;43379;48.160;14.036;2023-03-20T11:16:10;14.50;99.90
57552;DHT22;43379;48.160;14.036;2023-03-20T11:18:41;14.30;99.90
57552;DHT22;43379;48.160;14.036;2023-03-20T11:21:18;14.40;99.90
57552;DHT22;43379;48.160;14.036;2023-03-20T11:23:44;14.30;99.90
57552;DHT22;43379;48.160;14.036;2023-03-20T11:26:19;14.30;99.90
57552;DHT22;43379;48.160;14.036;2023-03-20T11:28:54;14.20;99.90
57552;DHT22;43379;48.160;14.036;2023-03-20T11:31:36;14.20;99.90
57552;DHT22;43379;48.160;14.036;2023-03-20T11:36:56;14.10;99.90
57552;DHT22;43379;48.160;14.036;2023-03-20T11:39:27;14.10;99.90
57552;DHT22;43379;48.160;14.036;2023-03-20T11:41:58;14.10;99.90
57552;DHT22;43379;48.160;14.036;2023-03-20T11:47:05;14.10;99.90
57552;DHT22;43379;48.160;14.036;2023-03-20T11:49:55;14.10;99.90
57552;DHT22;43379;48.160;14.036;2023-03-20T11:52:24;14.10;99.90
57552;DHT22;43379;48.160;14.036;2023-03-20T11:54:55;14.00;99.90
57552;DHT22;43379;48.160;14.036;2023-03-20T11:57:33;14.00;99.90
57552;DHT22;43379;48.160;14.036;2023-03-20T12:00:06;14.00;99.90
57552;DHT22;43379;48.160;14.036;2023-03-20T12:02:40;14.00;99.90
57552;DHT22;43379;48.160;14.036;2023-03-20T12:05:32;13.90;99.90
57552;DHT22;43379;48.160;14.036;2023-03-20T12:10:31;13.90;99.90
57552;DHT22;43379;48.160;14.036;2023-03-20T12:15:30;13.90;99.90
57552;DHT22;43379;48.160;14.036;2023-03-20T12:26:26;13.70;99.90
57552;DHT22;43379;48.160;14.036;2023-03-20T12:29:04;13.70;99.90
57552;DHT22;43379;48.160;14.036;2023-03-20T12:31:41;13.60;99.90
57552;DHT22;43379;48.160;14.036;2023-03-20T12:36:44;13.70;99.90
57552;DHT22;43379;48.160;14.036;2023-03-20T12:39:16;13.80;99.90
57552;DHT22;43379;48.160;14.036;2023-03-20T12:44:47;13.80;99.90
57552;DHT22;43379;48.160;14.036;2023-03-20T12:53:27;13.90;99.90
57552;DHT22;43379;48.160;14.036;2023-03-20T13:01:20;13.90;99.90
57552;DHT22;43379;48.160;14.036;2023-03-20T13:21:32;15.00;99.90
57552;DHT22;43379;48.160;14.036;2023-03-20T13:35:12;15.10;99.90
57552;DHT22;43379;48.160;14.036;2023-03-20T13:37:50;15.20;99.90
57552;DHT22;43379;48.160;14.036;2023-03-20T13:40:28;15.20;99.90
57552;DHT22;43379;48.160;14.036;2023-03-20T13:43:25;15.20;99.90
57552;DHT22;43379;48.160;14.036;2023-03-20T13:46:03;15.20;99.90
57552;DHT22;43379;48.160;14.036;2023-03-20T13:48:39;15.20;99.90
57552;DHT22;43379;48.160;14.036;2023-03-20T13:51:13;15.10;99.90
57552;DHT22;43379;48.160;14.036;2023-03-20T13:54:04;15.20;99.90
57552;DHT22;43379;48.160;14.036;2023-03-20T13:56:50;15.20;99.90
57552;DHT22;43379;48.160;14.036;2023-03-20T14:04:40;15.10;99.90
57552;DHT22;43379;48.160;14.036;2023-03-20T14:09:53;15.20;99.90
57552;DHT22;43379;48.160;14.036;2023-03-20T14:12:24;15.20;99.90
57552;DHT22;43379;48.160;14.036;2023-03-20T14:14:56;15.20;99.90
57552;DHT22;43379;48.160;14.036;2023-03-20T14:17:29;15.30;99.90
57552;DHT22;43379;48.160;14.036;2023-03-20T14:19:57;15.40;99.90
57552;DHT22;43379;48.160;14.036;2023-03-20T14:22:35;15.40;99.90
57552;DHT22;43379;48.160;14.036;2023-03-20T14:25:05;15.40;99.90
57552;DHT22;43379;48.160;14.036;2023-03-20T14:27:56;15.40;99.90
57552;DHT22;43379;48.160;14.036;2023-03-20T14:33:06;15.40;99.90
57552;DHT22;43379;48.160;14.036;2023-03-20T14:35:45;15.60;99.90
57552;DHT22;43379;48.160;14.036;2023-03-20T14:38:31;15.40;99.90
57552;DHT22;43379;48.160;14.036;2023-03-20T14:41:14;15.40;99.90
57552;DHT22;43379;48.160;14.036;2023-03-20T14:48:46;15.40;99.90
57552;DHT22;43379;48.160;14.036;2023-03-20T14:51:32;15.40;99.90
57552;DHT22;43379;48.160;14.036;2023-03-20T14:56:46;15.30;99.90
57552;DHT22;43379;48.160;14.036;2023-03-20T14:59:14;15.30;99.90
57552;DHT22;43379;48.160;14.036;2023-03-20T15:01:47;15.20;99.90
57552;DHT22;43379;48.160;14.036;2023-03-20T15:07:16;15.10;99.90
57552;DHT22;43379;48.160;14.036;2023-03-20T15:09:44;15.10;99.90
57552;DHT22;43379;48.160;14.036;2023-03-20T15:12:18;15.10;99.90
57552;DHT22;43379;48.160;14.036;2023-03-20T15:14:49;15.00;99.90
57552;DHT22;43379;48.160;14.036;2023-03-20T15:17:25;15.00;99.90
57552;DHT22;43379;48.160;14.036;2023-03-20T15:22:52;14.90;99.90
57552;DHT22;43379;48.160;14.036;2023-03-20T15:25:20;14.90;99.90
57552;DHT22;43379;48.160;14.036;2023-03-20T15:27:46;14.80;99.90
57552;DHT22;43379;48.160;14.036;2023-03-20T15:30:14;14.70;99.90
57552;DHT22;43379;48.160;14.036;2023-03-20T15:32:41;14.70;99.90
57552;DHT22;43379;48.160;14.036;2023-03-20T15:35:18;14.60;99.90
57552;DHT22;43379;48.160;14.036;2023-03-20T15:37:47;14.60;99.90
57552;DHT22;43379;48.160;14.036;2023-03-20T15:42:59;14.50;99.90
57552;DHT22;43379;48.160;14.036;2023-03-20T15:45:30;14.50;99.90
57552;DHT22;43379;48.160;14.036;2023-03-20T15:48:16;14.40;99.90
57552;DHT22;43379;48.160;14.036;2023-03-20T15:50:45;14.50;99.90
57552;DHT22;43379;48.160;14.036;2023-03-20T15:53:28;14.50;99.90
57552;DHT22;43379;48.160;14.036;2023-03-20T15:56:12;14.60;99.90
57552;DHT22;43379;48.160;14.036;2023-03-20T15:58:40;14.50;99.90
57552;DHT22;43379;48.160;14.036;2023-03-20T16:01:08;14.40;99.90
57552;DHT22;43379;48.160;14.036;2023-03-20T16:03:38;14.40;99.90
57552;DHT22;43379;48.160;14.036;2023-03-20T16:06:09;14.50;99.90
57552;DHT22;43379;48.160;14.036;2023-03-20T16:08:35;14.50;99.90
57552;DHT22;43379;48.160;14.036;2023-03-20T16:11:08;14.60;99.90
57552;DHT22;43379;48.160;14.036;2023-03-20T16:13:43;14.60;99.90
57552;DHT22;43379;48.160;14.036;2023-03-20T16:16:14;14.50;99.90
57552;DHT22;43379;48.160;14.036;2023-03-20T16:18:40;14.60;99.90
57552;DHT22;43379;48.160;14.036;2023-03-20T16:21:22;14.50;99.90
57552;DHT22;43379;48.160;14.036;2023-03-20T16:23:54;14.50;99.90
57552;DHT22;43379;48.160;14.036;2023-03-20T16:26:22;14.40;99.90
57552;DHT22;43379;48.160;14.036;2023-03-20T16:28:53;14.30;99.90
57552;DHT22;43379;48.160;14.036;2023-03-20T16:31:24;14.30;99.90
57552;DHT22;43379;48.160;14.036;2023-03-20T16:33:51;14.30;99.90
57552;DHT22;43379;48.160;14.036;2023-03-20T16:36:20;14.30;99.90
57552;DHT22;43379;48.160;14.036;2023-03-20T16:38:56;14.30;99.90
57552;DHT22;43379;48.160;14.036;2023-03-20T16:41:39;14.20;99.90
57552;DHT22;43379;48.160;14.036;2023-03-20T16:44:17;14.20;99.90
57552;DHT22;43379;48.160;14.036;2023-03-20T16:47:00;14.10;99.90
57552;DHT22;43379;48.160;14.036;2023-03-20T16:52:01;14.10;99.90
57552;DHT22;43379;48.160;14.036;2023-03-20T16:54:29;14.00;99.90
57552;DHT22;43379;48.160;14.036;2023-03-20T16:56:56;14.00;99.90
57552;DHT22;43379;48.160;14.036;2023-03-20T16:59:23;13.90;99.90
57552;DHT22;43379;48.160;14.036;2023-03-20T17:01:50;14.00;99.90
57552;DHT22;43379;48.160;14.036;2023-03-20T17:04:31;13.90;99.90
57552;DHT22;43379;48.160;14.036;2023-03-20T17:09:30;13.90;99.90
57552;DHT22;43379;48.160;14.036;2023-03-20T17:12:14;13.80;99.90
57552;DHT22;43379;48.160;14.036;2023-03-20T17:14:42;13.80;99.90
57552;DHT22;43379;48.160;14.036;2023-03-20T17:17:16;13.80;99.90
57552;DHT22;43379;48.160;14.036;2023-03-20T17:19:42;13.70;99.90
57552;DHT22;43379;48.160;14.036;2023-03-20T17:22:23;13.70;99.90
57552;DHT22;43379;48.160;14.036;2023-03-20T17:24:49;13.70;99.90
57552;DHT22;43379;48.160;14.036;2023-03-20T17:27:16;13.70;99.90
57552;DHT22;43379;48.160;14.036;2023-03-20T17:29:43;13.60;99.90
57552;DHT22;43379;48.160;14.036;2023-03-20T17:32:14;13.70;99.90
57552;DHT22;43379;48.160;14.036;2023-03-20T17:34:41;13.60;99.90
57552;DHT22;43379;48.160;14.036;2023-03-20T17:37:18;13.60;99.90
57552;DHT22;43379;48.160;14.036;2023-03-20T17:39:45;13.60;99.90
57552;DHT22;43379;48.160;14.036;2023-03-20T17:42:22;13.50;99.90
57552;DHT22;43379;48.160;14.036;2023-03-20T17:44:51;13.50;99.90
57552;DHT22;43379;48.160;14.036;2023-03-20T17:47:19;13.50;99.90
57552;DHT22;43379;48.160;14.036;2023-03-20T17:49:45;13.40;99.90
57552;DHT22;43379;48.160;14.036;2023-03-20T17:52:13;13.40;99.90
57552;DHT22;43379;48.160;14.036;2023-03-20T17:54:43;13.40;99.90
57552;DHT22;43379;48.160;14.036;2023-03-20T17:57:34;13.30;99.90
57552;DHT22;43379;48.160;14.036;2023-03-20T18:00:03;13.30;99.90
57552;DHT22;43379;48.160;14.036;2023-03-20T18:02:29;13.30;99.90
57552;DHT22;43379;48.160;14.036;2023-03-20T18:04:55;13.20;99.90